Monomeith, Australia

2:05 AM AEDT on February 28, 2017 (GMT +1100)
Bayles, Australia | | Change Station

Elev 39 ft 38.18 °S, 145.57 °E | Updated 2 seconds ago

Clear
Clear
62.7 °F
Feels Like 62.7 °F
N
4.0
Wind Variable Wind from NE
Gusts 4.6 mph

Today
High -- | Low -- °F
--% Chance of Precip.
Yesterday
High -- | Low -- °F
Precip. -- in
Pressure 30.12 in
Visibility 6.2 miles
Clouds
Dew Point 58 °F
Humidity 86%
Rainfall 0.00 in
Snow Depth Not available.
7:00 AM 7:59 PM
New Moon, 1% visible
METAR YMEN 271500Z AUTO 30006KT 9999 // NCD 21/12 Q1020
Pressure 30.12 in
Visibility 6.2 miles
Clouds
Dew Point 58 °F
Humidity 86%
Rainfall 0.00 in
Snow Depth Not available.
7:00 AM 7:59 PM
New Moon, 1% visible
METAR YMEN 271500Z AUTO 30006KT 9999 // NCD 21/12 Q1020

Get Your Daily Forecast Email!

Thanks for signing up!

Be on the lookout for a verification email in your inbox.

You'll start receiving the daily forecast at 8 AM.

×

10-Day Weather Forecast

×

Almanac

Astronomy

Feb. 28, 2017 Rise Set
Actual Time
Civil Twilight
Nautical Twilight
Astronomical Twilight
Moon
Length of Visible Light
Length of Day
Tomorrow will be .
, % of the Moon is Illuminated

Today's Extremes

Country Highs Country Lows

Community

WunderPhotos

Upload Photos

1,962,540 photos uploaded!

WunderBlog® & News

Nearby

Air Quality

  Air Quality AQ Index Pollutant
Not available.

Snow Depth

Station Depth Elevation

Earthquake Activity

City Distance Mag. Time & Date
Minimum magnitude displayed is 2.5.

Coastal Water Temperatures

Place Temperature

Stations

Nearby Weather Stations

Station Location Temp. Windchill Dew Point Humidity Wind Precip. Elev Updated Type